DLH3RJ LGAV-EDDF
Flight info
| Callsign | DLH3RJ |
|---|---|
| Flight time | N/A |
| Altitude | 38000 |
| Route | KOR UL53 IXONI DCT YNN UL611 TUMBO DCT OVVER DCT RODON DCT VAKSU DCT MONFA DCT SOTOV DCT NIKWU Q163 ETASA T163 SPESA SPESA5B |
| Aircraft | A21N/M-SDE2E3FGIJ1LORWXYZ/HB1 |
Departure
| Time | N/A |
|---|---|
| Airport | Athens Eleftherios Venizelos International Airport (LGAV) |
Arrival
| Time | 2026-05-06 09:15 |
|---|---|
| Airport | Frankfurt Main Airport (EDDF) |
| Time | Latitude | Longitude | Altitude | Speed | Heading |
|---|---|---|---|---|---|
| 2026-05-06 08:46 | 48.32612 | 10.08931 | 37792 ft | 455 kts | 315° |
| 2026-05-06 08:46 | 48.35068 | 10.05938 | 37795 ft | 455 kts | 316° |
| 2026-05-06 08:47 | 48.39995 | 9.99940 | 37797 ft | 455 kts | 316° |
| 2026-05-06 08:47 | 48.44910 | 9.93936 | 37796 ft | 455 kts | 316° |
| 2026-05-06 08:48 | 48.49822 | 9.87924 | 37798 ft | 454 kts | 316° |
| 2026-05-06 08:48 | 48.54703 | 9.81930 | 37508 ft | 451 kts | 315° |
| 2026-05-06 08:48 | 48.56352 | 9.79904 | 37304 ft | 451 kts | 315° |
| 2026-05-06 08:49 | 48.58753 | 9.76948 | 36820 ft | 450 kts | 315° |
| 2026-05-06 08:49 | 48.61150 | 9.73920 | 36177 ft | 448 kts | 313° |
| 2026-05-06 08:49 | 48.63493 | 9.70850 | 35560 ft | 446 kts | 312° |
| 2026-05-06 08:49 | 48.65831 | 9.67775 | 34979 ft | 444 kts | 312° |
| 2026-05-06 08:50 | 48.68152 | 9.64712 | 34428 ft | 441 kts | 311° |
| 2026-05-06 08:50 | 48.70451 | 9.61668 | 33899 ft | 439 kts | 311° |
| 2026-05-06 08:50 | 48.72746 | 9.58626 | 33279 ft | 437 kts | 311° |
| 2026-05-06 08:50 | 48.75035 | 9.55597 | 32682 ft | 435 kts | 311° |
| 2026-05-06 08:51 | 48.77310 | 9.52592 | 32115 ft | 432 kts | 311° |
| 2026-05-06 08:51 | 48.79569 | 9.49604 | 31541 ft | 430 kts | 312° |
| 2026-05-06 08:51 | 48.81818 | 9.46630 | 30981 ft | 428 kts | 312° |
| 2026-05-06 08:51 | 48.84056 | 9.43665 | 30435 ft | 425 kts | 312° |
| 2026-05-06 08:52 | 48.86271 | 9.40723 | 29930 ft | 422 kts | 312° |
| 2026-05-06 08:52 | 48.88477 | 9.37781 | 29309 ft | 420 kts | 312° |
| 2026-05-06 08:52 | 48.90676 | 9.34890 | 28704 ft | 419 kts | 315° |
| 2026-05-06 08:52 | 48.93161 | 9.32524 | 28142 ft | 423 kts | 328° |
| 2026-05-06 08:53 | 48.95789 | 9.30539 | 27613 ft | 420 kts | 329° |
| 2026-05-06 08:53 | 48.98405 | 9.28593 | 27088 ft | 417 kts | 329° |
| 2026-05-06 08:53 | 49.00994 | 9.26647 | 26556 ft | 414 kts | 329° |
| 2026-05-06 08:53 | 49.03564 | 9.24698 | 26019 ft | 411 kts | 329° |
| 2026-05-06 08:54 | 49.06110 | 9.22757 | 25511 ft | 408 kts | 329° |
| 2026-05-06 08:54 | 49.08637 | 9.20829 | 25017 ft | 405 kts | 329° |
| 2026-05-06 08:54 | 49.11145 | 9.18915 | 24515 ft | 402 kts | 329° |
| 2026-05-06 08:54 | 49.13633 | 9.17014 | 24000 ft | 398 kts | 329° |
| 2026-05-06 08:55 | 49.16092 | 9.15134 | 23492 ft | 393 kts | 329° |
| 2026-05-06 08:55 | 49.18595 | 9.13460 | 22918 ft | 393 kts | 340° |
| 2026-05-06 08:55 | 49.21295 | 9.12922 | 22362 ft | 393 kts | 359° |
| 2026-05-06 08:55 | 49.24000 | 9.13293 | 21867 ft | 388 kts | 5° |
| 2026-05-06 08:56 | 49.26663 | 9.13781 | 21353 ft | 383 kts | 5° |
| 2026-05-06 08:56 | 49.29300 | 9.14235 | 20848 ft | 379 kts | 4° |
| 2026-05-06 08:56 | 49.31912 | 9.14647 | 20370 ft | 374 kts | 4° |
| 2026-05-06 08:56 | 49.34480 | 9.15028 | 19918 ft | 369 kts | 4° |
| 2026-05-06 08:57 | 49.37019 | 9.15393 | 19480 ft | 364 kts | 4° |
| 2026-05-06 08:57 | 49.39519 | 9.15748 | 19048 ft | 359 kts | 4° |
| 2026-05-06 08:57 | 49.41996 | 9.16099 | 18626 ft | 356 kts | 4° |
| 2026-05-06 08:57 | 49.44453 | 9.16446 | 18221 ft | 354 kts | 4° |
| 2026-05-06 08:58 | 49.46902 | 9.16792 | 17850 ft | 352 kts | 4° |
| 2026-05-06 08:58 | 49.49332 | 9.17134 | 17570 ft | 348 kts | 4° |
| 2026-05-06 08:58 | 49.51725 | 9.17474 | 17095 ft | 343 kts | 4° |
| 2026-05-06 08:58 | 49.54076 | 9.18190 | 16396 ft | 348 kts | 16° |
| 2026-05-06 08:59 | 49.56369 | 9.19374 | 15893 ft | 346 kts | 18° |
| 2026-05-06 08:59 | 49.58631 | 9.20588 | 15474 ft | 344 kts | 18° |
| 2026-05-06 08:59 | 49.60898 | 9.21783 | 15091 ft | 345 kts | 18° |
| 2026-05-06 08:59 | 49.63173 | 9.22965 | 14716 ft | 345 kts | 18° |
| 2026-05-06 09:00 | 49.65453 | 9.24140 | 14336 ft | 346 kts | 17° |
| 2026-05-06 09:00 | 49.67735 | 9.25315 | 13949 ft | 347 kts | 17° |
| 2026-05-06 09:00 | 49.70003 | 9.26480 | 13546 ft | 348 kts | 17° |
| 2026-05-06 09:00 | 49.72331 | 9.27675 | 13117 ft | 349 kts | 17° |
| 2026-05-06 09:01 | 49.74626 | 9.28855 | 12741 ft | 344 kts | 17° |
| 2026-05-06 09:01 | 49.76860 | 9.30007 | 12445 ft | 334 kts | 17° |
| 2026-05-06 09:01 | 49.79019 | 9.31120 | 12090 ft | 330 kts | 17° |
| 2026-05-06 09:01 | 49.81193 | 9.32232 | 11730 ft | 327 kts | 16° |
| 2026-05-06 09:02 | 49.83413 | 9.32773 | 11336 ft | 323 kts | 356° |
| 2026-05-06 09:02 | 49.85641 | 9.32462 | 10967 ft | 320 kts | 349° |
| 2026-05-06 09:02 | 49.87841 | 9.31982 | 10616 ft | 319 kts | 349° |
| 2026-05-06 09:02 | 49.90027 | 9.31478 | 10254 ft | 316 kts | 349° |
| 2026-05-06 09:03 | 49.92183 | 9.30978 | 9885 ft | 310 kts | 349° |
| 2026-05-06 09:03 | 49.94294 | 9.30467 | 9513 ft | 303 kts | 346° |
| 2026-05-06 09:03 | 49.96325 | 9.29795 | 9091 ft | 296 kts | 344° |
| 2026-05-06 09:03 | 49.98314 | 9.29089 | 8700 ft | 291 kts | 344° |
| 2026-05-06 09:04 | 50.00263 | 9.28380 | 8313 ft | 285 kts | 343° |
| 2026-05-06 09:04 | 50.02184 | 9.27680 | 7930 ft | 280 kts | 343° |
| 2026-05-06 09:04 | 50.04062 | 9.26998 | 7539 ft | 275 kts | 343° |
| 2026-05-06 09:04 | 50.05818 | 9.25970 | 7156 ft | 265 kts | 323° |
| 2026-05-06 09:05 | 50.07123 | 9.24053 | 6783 ft | 254 kts | 306° |
| 2026-05-06 09:05 | 50.08200 | 9.21919 | 6416 ft | 248 kts | 304° |
| 2026-05-06 09:05 | 50.09230 | 9.19800 | 6040 ft | 243 kts | 303° |
| 2026-05-06 09:05 | 50.10239 | 9.17720 | 5641 ft | 238 kts | 303° |
| 2026-05-06 09:06 | 50.11226 | 9.15685 | 5261 ft | 234 kts | 303° |
| 2026-05-06 09:06 | 50.12200 | 9.13673 | 4896 ft | 231 kts | 303° |
| 2026-05-06 09:06 | 50.13160 | 9.11684 | 4499 ft | 229 kts | 303° |
| 2026-05-06 09:06 | 50.14111 | 9.09710 | 4132 ft | 226 kts | 303° |
| 2026-05-06 09:07 | 50.15033 | 9.07807 | 3994 ft | 216 kts | 303° |
| 2026-05-06 09:07 | 50.15781 | 9.05817 | 3965 ft | 207 kts | 279° |
| 2026-05-06 09:07 | 50.15643 | 9.03693 | 3978 ft | 199 kts | 246° |
| 2026-05-06 09:07 | 50.14992 | 9.01789 | 3996 ft | 201 kts | 239° |
| 2026-05-06 09:08 | 50.14279 | 8.99918 | 3998 ft | 201 kts | 240° |
| 2026-05-06 09:08 | 50.13635 | 8.98045 | 3996 ft | 188 kts | 243° |
| 2026-05-06 09:08 | 50.13081 | 8.96211 | 4002 ft | 189 kts | 245° |
| 2026-05-06 09:08 | 50.12568 | 8.94340 | 4029 ft | 188 kts | 246° |
| 2026-05-06 09:09 | 50.12078 | 8.92512 | 4017 ft | 180 kts | 248° |
| 2026-05-06 09:09 | 50.11628 | 8.90670 | 3999 ft | 178 kts | 249° |
| 2026-05-06 09:09 | 50.11198 | 8.88872 | 3990 ft | 177 kts | 249° |
| 2026-05-06 09:09 | 50.10781 | 8.87120 | 3990 ft | 168 kts | 249° |
| 2026-05-06 09:10 | 50.10375 | 8.85413 | 3919 ft | 168 kts | 249° |
| 2026-05-06 09:10 | 50.09969 | 8.83709 | 3746 ft | 168 kts | 249° |
| 2026-05-06 09:10 | 50.09567 | 8.82017 | 3520 ft | 168 kts | 249° |
| 2026-05-06 09:10 | 50.09164 | 8.80321 | 3302 ft | 166 kts | 249° |
| 2026-05-06 09:11 | 50.08765 | 8.78642 | 3082 ft | 165 kts | 249° |
| 2026-05-06 09:11 | 50.08372 | 8.76987 | 2859 ft | 162 kts | 248° |
| 2026-05-06 09:11 | 50.07982 | 8.75347 | 2634 ft | 159 kts | 248° |
| 2026-05-06 09:11 | 50.07617 | 8.73814 | 2433 ft | 140 kts | 248° |
| 2026-05-06 09:12 | 50.07304 | 8.72501 | 2239 ft | 124 kts | 248° |
| 2026-05-06 09:12 | 50.07005 | 8.71246 | 2080 ft | 124 kts | 247° |
| 2026-05-06 09:12 | 50.06705 | 8.69984 | 1908 ft | 125 kts | 248° |
| 2026-05-06 09:12 | 50.06400 | 8.68704 | 1750 ft | 127 kts | 249° |
| 2026-05-06 09:13 | 50.06095 | 8.67422 | 1580 ft | 124 kts | 248° |
| 2026-05-06 09:13 | 50.05800 | 8.66171 | 1415 ft | 123 kts | 248° |
| 2026-05-06 09:13 | 50.05497 | 8.64927 | 1220 ft | 124 kts | 246° |
| 2026-05-06 09:13 | 50.05201 | 8.63655 | 1068 ft | 126 kts | 246° |
| 2026-05-06 09:14 | 50.04900 | 8.62391 | 925 ft | 124 kts | 244° |
| 2026-05-06 09:14 | 50.04604 | 8.61123 | 751 ft | 125 kts | 244° |
| 2026-05-06 09:14 | 50.04294 | 8.59844 | 597 ft | 129 kts | 246° |
| 2026-05-06 09:14 | 50.03989 | 8.58550 | 430 ft | 126 kts | 245° |
| 2026-05-06 09:15 | 50.03744 | 8.57535 | 364 ft | 114 kts | 247° |
| 2026-05-06 09:15 | 50.03534 | 8.56685 | 362 ft | 54 kts | 248° |
| 2026-05-06 09:15 | 50.03439 | 8.56236 | 358 ft | 28 kts | 258° |
| 2026-05-06 09:15 | 50.03445 | 8.55976 | 353 ft | 20 kts | 279° |
| 2026-05-06 09:16 | 50.03470 | 8.55761 | 350 ft | 21 kts | 281° |
| 2026-05-06 09:16 | 50.03489 | 8.55589 | 351 ft | 16 kts | 278° |
| 2026-05-06 09:16 | 50.03477 | 8.55408 | 359 ft | 18 kts | 253° |
| 2026-05-06 09:16 | 50.03432 | 8.55218 | 356 ft | 20 kts | 250° |
| 2026-05-06 09:17 | 50.03391 | 8.55046 | 351 ft | 13 kts | 249° |
| 2026-05-06 09:17 | 50.03355 | 8.54902 | 352 ft | 15 kts | 249° |
| 2026-05-06 09:17 | 50.03317 | 8.54739 | 352 ft | 17 kts | 250° |
| 2026-05-06 09:17 | 50.03279 | 8.54574 | 349 ft | 10 kts | 250° |
| 2026-05-06 09:18 | 50.03319 | 8.54478 | 350 ft | 13 kts | 337° |
| 2026-05-06 09:18 | 50.03415 | 8.54421 | 351 ft | 16 kts | 341° |
| 2026-05-06 09:18 | 50.03532 | 8.54355 | 350 ft | 18 kts | 341° |
| 2026-05-06 09:18 | 50.03630 | 8.54316 | 347 ft | 13 kts | 11° |
| 2026-05-06 09:19 | 50.03687 | 8.54437 | 351 ft | 16 kts | 70° |
| 2026-05-06 09:19 | 50.03729 | 8.54615 | 354 ft | 19 kts | 69° |
| 2026-05-06 09:19 | 50.03782 | 8.54836 | 359 ft | 24 kts | 69° |
| 2026-05-06 09:19 | 50.03846 | 8.55105 | 356 ft | 28 kts | 70° |
| 2026-05-06 09:20 | 50.03917 | 8.55396 | 355 ft | 30 kts | 69° |
| 2026-05-06 09:20 | 50.03990 | 8.55707 | 355 ft | 31 kts | 70° |
| 2026-05-06 09:20 | 50.04064 | 8.56018 | 358 ft | 25 kts | 70° |
| 2026-05-06 09:20 | 50.04127 | 8.56277 | 364 ft | 27 kts | 69° |
| 2026-05-06 09:21 | 50.04192 | 8.56550 | 365 ft | 27 kts | 69° |
| 2026-05-06 09:21 | 50.04238 | 8.56743 | 363 ft | 16 kts | 67° |
| 2026-05-06 09:21 | 50.04338 | 8.56827 | 365 ft | 19 kts | 9° |
| 2026-05-06 09:21 | 50.04472 | 8.56862 | 365 ft | 20 kts | 11° |
| 2026-05-06 09:22 | 50.04592 | 8.56906 | 365 ft | 15 kts | 14° |
| 2026-05-06 09:22 | 50.04697 | 8.56966 | 367 ft | 17 kts | 24° |
| 2026-05-06 09:22 | 50.04779 | 8.57025 | 365 ft | 8 kts | 25° |
| 2026-05-06 09:22 | 50.04823 | 8.57029 | 367 ft | 8 kts | 317° |
| 2026-05-06 09:23 | 50.04834 | 8.57006 | 361 ft | 0 kts | 300° |
| 2026-05-06 09:23 | 50.04834 | 8.57007 | 361 ft | 0 kts | 300° |
| 2026-05-06 09:23 | 50.04833 | 8.57007 | 361 ft | 0 kts | 300° |
| 2026-05-06 09:24 | 50.04834 | 8.57005 | 361 ft | 1 kts | 298° |
| 2026-05-06 09:24 | 50.04843 | 8.56978 | 366 ft | 4 kts | 295° |
| 2026-05-06 09:24 | 50.04849 | 8.56956 | 363 ft | 2 kts | 295° |
| 2026-05-06 09:24 | 50.04852 | 8.56948 | 362 ft | 0 kts | 295° |